createdAt,value
2022-09-17T00:00:32.699Z,4.40
2022-09-17T00:03:25.078Z,4.20
2022-09-17T00:06:03.178Z,3.90
2022-09-17T00:08:35.269Z,3.90
2022-09-17T00:11:11.365Z,3.80
2022-09-17T00:13:43.702Z,4.60
2022-09-17T00:16:21.999Z,4.50
2022-09-17T00:18:53.539Z,4.30
2022-09-17T00:21:25.719Z,3.90
2022-09-17T00:23:58.665Z,4.10
2022-09-17T00:26:31.897Z,3.90
2022-09-17T00:29:03.841Z,4.00
2022-09-17T00:31:36.101Z,4.40
2022-09-17T00:34:08.031Z,4.30
2022-09-17T00:36:40.710Z,4.30
2022-09-17T00:39:15.661Z,4.50
2022-09-17T00:41:47.169Z,4.60
2022-09-17T00:44:43.118Z,4.60
2022-09-17T00:47:25.424Z,4.80
2022-09-17T00:50:01.112Z,4.90
2022-09-17T00:52:37.311Z,4.90
2022-09-17T00:55:15.070Z,4.90
2022-09-17T00:57:47.577Z,4.90
2022-09-17T01:00:22.721Z,4.80
2022-09-17T01:02:55.035Z,4.90
2022-09-17T01:05:40.132Z,4.90
2022-09-17T01:08:22.357Z,4.80
2022-09-17T01:11:16.142Z,5.50
2022-09-17T01:13:58.837Z,6.10
2022-09-17T01:16:38.932Z,5.50
2022-09-17T01:19:32.108Z,5.60
2022-09-17T01:22:09.622Z,5.90
2022-09-17T01:25:01.425Z,6.20
2022-09-17T01:30:48.899Z,7.80
2022-09-17T01:33:27.669Z,7.30
2022-09-17T01:36:09.500Z,7.40
2022-09-17T01:38:50.058Z,7.60
2022-09-17T01:41:28.694Z,7.90
2022-09-17T01:44:03.719Z,8.30
2022-09-17T01:46:38.300Z,9.30
2022-09-17T01:49:11.727Z,8.20
2022-09-17T01:51:47.204Z,7.90
2022-09-17T01:54:24.523Z,7.40
2022-09-17T01:57:01.989Z,7.60
2022-09-17T01:59:39.111Z,7.10
2022-09-17T02:02:17.775Z,7.70
2022-09-17T02:04:56.419Z,7.50
2022-09-17T02:07:28.591Z,7.80
2022-09-17T02:10:06.848Z,6.40
2022-09-17T02:12:42.075Z,7.60
2022-09-17T02:15:19.715Z,7.70
2022-09-17T02:17:55.317Z,7.90
2022-09-17T02:20:32.925Z,7.50
2022-09-17T02:23:14.517Z,7.00
2022-09-17T02:25:51.535Z,6.80
2022-09-17T02:28:29.514Z,7.40
2022-09-17T02:31:01.025Z,7.80
2022-09-17T02:36:03.776Z,8.70
2022-09-17T02:38:35.298Z,9.80
2022-09-17T02:43:51.578Z,9.10
2022-09-17T02:46:48.327Z,8.80
2022-09-17T02:49:34.308Z,10.00
2022-09-17T02:52:19.256Z,10.80
2022-09-17T02:55:01.696Z,11.50
2022-09-17T02:57:42.071Z,11.20
2022-09-17T03:00:16.934Z,11.30
2022-09-17T03:02:52.273Z,11.30
2022-09-17T03:05:25.730Z,12.30
2022-09-17T03:08:00.237Z,13.10
2022-09-17T03:10:33.758Z,13.20
2022-09-17T03:13:05.282Z,12.50
2022-09-17T03:15:36.772Z,11.50
2022-09-17T03:20:38.485Z,13.20
2022-09-17T03:25:40.000Z,13.80
2022-09-17T03:28:11.426Z,13.40
2022-09-17T03:30:43.434Z,12.40
2022-09-17T03:33:14.969Z,12.50
2022-09-17T03:38:17.046Z,13.30
2022-09-17T03:40:59.457Z,13.50
2022-09-17T03:43:30.903Z,12.10
2022-09-17T03:46:02.431Z,11.40
2022-09-17T03:48:37.006Z,11.80
2022-09-17T03:51:09.049Z,11.70
2022-09-17T03:53:40.629Z,12.10
2022-09-17T03:56:12.136Z,13.20
2022-09-17T03:58:43.584Z,11.90
2022-09-17T04:01:15.084Z,11.60
2022-09-17T04:06:17.365Z,12.00
2022-09-17T04:08:48.985Z,11.90
2022-09-17T04:13:50.402Z,12.70
2022-09-17T04:16:21.935Z,15.70
2022-09-17T04:21:23.428Z,11.30
2022-09-17T04:23:54.885Z,11.20
2022-09-17T04:26:26.358Z,10.70
2022-09-17T04:28:57.834Z,12.00
2022-09-17T04:31:29.363Z,10.90
2022-09-17T04:36:32.004Z,10.30
2022-09-17T04:39:03.453Z,10.80
2022-09-17T04:41:34.970Z,10.70
2022-09-17T04:44:07.058Z,11.60
2022-09-17T04:46:38.800Z,13.10
2022-09-17T04:49:11.301Z,11.70
2022-09-17T04:51:42.750Z,10.90
2022-09-17T04:54:14.653Z,10.40
2022-09-17T04:56:46.103Z,11.50
2022-09-17T04:59:17.556Z,12.10
2022-09-17T05:01:49.487Z,18.20
2022-09-17T05:04:21.028Z,12.70
2022-09-17T05:06:52.696Z,11.70
2022-09-17T05:11:54.145Z,12.10
2022-09-17T05:14:25.569Z,12.00
2022-09-17T05:16:57.044Z,12.10
2022-09-17T05:19:28.571Z,11.70
2022-09-17T05:24:30.175Z,12.80
2022-09-17T05:29:31.717Z,11.50
2022-09-17T05:34:33.167Z,11.80
2022-09-17T05:39:34.593Z,11.70
2022-09-17T05:44:36.154Z,12.10
2022-09-17T05:49:37.933Z,12.50
2022-09-17T05:54:39.359Z,11.60
2022-09-17T05:59:40.771Z,11.70
2022-09-17T06:04:45.736Z,10.90
2022-09-17T06:09:47.146Z,11.60
2022-09-17T06:14:48.607Z,10.50
2022-09-17T06:17:22.188Z,11.00
2022-09-17T06:19:54.149Z,10.50
2022-09-17T06:22:25.918Z,9.90
2022-09-17T06:24:57.477Z,10.00
2022-09-17T06:27:33.764Z,9.20
2022-09-17T06:30:06.305Z,9.60
2022-09-17T06:32:38.026Z,9.50
2022-09-17T06:35:11.513Z,9.20
2022-09-17T06:37:43.100Z,9.30
2022-09-17T06:40:15.585Z,9.00
2022-09-17T06:42:47.323Z,7.70
2022-09-17T06:45:18.990Z,8.00
2022-09-17T06:47:50.961Z,8.00
2022-09-17T06:50:23.540Z,7.80
2022-09-17T06:52:56.089Z,7.50
2022-09-17T06:55:28.276Z,8.00
2022-09-17T06:58:02.473Z,7.00
2022-09-17T07:00:34.009Z,6.70
2022-09-17T07:03:05.550Z,6.50
2022-09-17T07:05:37.224Z,6.00
2022-09-17T07:08:10.872Z,6.30
2022-09-17T07:10:43.372Z,5.50
2022-09-17T07:13:15.020Z,5.50
2022-09-17T07:15:53.611Z,5.60
2022-09-17T07:18:25.775Z,4.90
2022-09-17T07:20:59.862Z,5.20
2022-09-17T07:23:33.653Z,4.90
2022-09-17T07:26:07.755Z,5.10
2022-09-17T07:28:40.998Z,4.70
2022-09-17T07:31:16.404Z,5.00
2022-09-17T07:33:48.491Z,4.30
2022-09-17T07:36:20.086Z,4.40
2022-09-17T07:38:51.626Z,3.90
2022-09-17T07:41:23.087Z,3.80
2022-09-17T07:46:26.033Z,3.80
2022-09-17T07:48:57.756Z,3.30
2022-09-17T07:51:30.412Z,3.00
2022-09-17T07:54:02.311Z,3.20
2022-09-17T07:56:34.675Z,3.50
2022-09-17T07:59:06.574Z,3.20
2022-09-17T08:01:38.429Z,3.10
2022-09-17T08:04:10.013Z,3.00
2022-09-17T08:09:13.473Z,3.20
2022-09-17T08:11:55.521Z,3.00
2022-09-17T08:14:29.981Z,3.30
2022-09-17T08:17:01.857Z,3.60
2022-09-17T08:19:34.581Z,3.10
2022-09-17T08:22:06.257Z,3.10
2022-09-17T08:24:38.343Z,3.00
2022-09-17T08:27:09.872Z,2.80
2022-09-17T08:29:41.558Z,2.60
2022-09-17T08:32:13.264Z,2.40
2022-09-17T08:34:47.097Z,2.90
2022-09-17T08:37:18.964Z,2.90
2022-09-17T08:39:50.704Z,2.80
2022-09-17T08:42:29.101Z,2.70
2022-09-17T08:45:37.558Z,3.00
2022-09-17T08:48:14.490Z,2.80
2022-09-17T08:50:46.094Z,2.70
2022-09-17T08:53:36.570Z,2.40
2022-09-17T08:56:14.659Z,2.60
2022-09-17T08:59:08.450Z,2.70
2022-09-17T09:01:46.491Z,2.90
2022-09-17T09:04:42.789Z,2.60
2022-09-17T09:07:19.490Z,3.20
2022-09-17T09:09:56.080Z,3.20
2022-09-17T09:12:32.847Z,3.30
2022-09-17T09:15:06.854Z,2.80
2022-09-17T09:17:45.229Z,3.10
2022-09-17T09:20:19.421Z,3.30
2022-09-17T09:22:52.571Z,3.20
2022-09-17T09:25:28.552Z,2.90
2022-09-17T09:28:07.816Z,3.00
2022-09-17T09:30:53.595Z,3.40
2022-09-17T09:33:31.964Z,2.70
2022-09-17T09:36:06.628Z,2.70
2022-09-17T09:38:41.850Z,2.40
2022-09-17T09:41:16.053Z,2.70
2022-09-17T09:44:05.611Z,2.70
2022-09-17T09:47:04.344Z,2.60
2022-09-17T09:49:54.334Z,2.90
2022-09-17T09:52:42.432Z,3.00
2022-09-17T09:55:41.536Z,2.90
2022-09-17T09:58:25.356Z,2.90
2022-09-17T10:00:56.817Z,3.00
2022-09-17T10:06:02.434Z,3.20
2022-09-17T10:08:39.454Z,3.10
2022-09-17T10:11:25.649Z,3.00
2022-09-17T10:14:20.956Z,3.30
2022-09-17T10:17:11.775Z,3.20
2022-09-17T10:19:43.709Z,3.30
2022-09-17T10:22:28.418Z,3.10
2022-09-17T10:25:01.623Z,3.10
2022-09-17T10:27:33.879Z,3.50
2022-09-17T10:30:17.771Z,3.70
2022-09-17T10:33:16.191Z,3.70
2022-09-17T10:35:59.900Z,3.00
2022-09-17T10:38:35.304Z,3.10
2022-09-17T10:41:15.351Z,3.20
2022-09-17T10:43:47.322Z,3.10
2022-09-17T10:46:27.627Z,3.80
2022-09-17T10:49:12.931Z,3.40
2022-09-17T10:51:45.175Z,3.10
2022-09-17T10:54:32.938Z,3.30
2022-09-17T10:57:06.405Z,3.00
2022-09-17T11:00:10.163Z,3.10
2022-09-17T11:03:17.048Z,2.90
2022-09-17T11:06:12.268Z,2.70
2022-09-17T11:08:58.308Z,3.00
2022-09-17T11:11:41.799Z,3.70
2022-09-17T11:14:23.970Z,3.50
2022-09-17T11:17:05.731Z,3.20
2022-09-17T11:19:46.863Z,3.00
2022-09-17T11:22:24.798Z,3.30
2022-09-17T11:25:09.001Z,4.40
2022-09-17T11:27:54.331Z,3.40
2022-09-17T11:30:32.005Z,2.50
2022-09-17T11:33:18.640Z,2.70
2022-09-17T11:35:54.701Z,2.90
2022-09-17T11:38:29.378Z,2.60
2022-09-17T11:41:07.537Z,2.60
2022-09-17T11:43:42.614Z,2.60
2022-09-17T11:46:19.851Z,2.40
2022-09-17T11:48:59.179Z,2.40
2022-09-17T11:51:36.393Z,2.50
2022-09-17T11:54:27.198Z,3.00
2022-09-17T11:57:09.625Z,3.10
2022-09-17T11:59:47.520Z,3.30
2022-09-17T12:02:27.466Z,2.80
2022-09-17T12:05:02.658Z,2.70
2022-09-17T12:07:42.048Z,2.70
2022-09-17T12:10:31.007Z,2.90
2022-09-17T12:13:15.069Z,3.20
2022-09-17T12:15:53.368Z,2.90
2022-09-17T12:18:37.701Z,3.10
2022-09-17T12:21:14.838Z,2.80
2022-09-17T12:23:50.498Z,2.70
2022-09-17T12:26:34.346Z,3.10
2022-09-17T12:29:22.097Z,2.60
2022-09-17T12:32:02.107Z,3.20
2022-09-17T12:34:46.843Z,3.10
2022-09-17T12:37:25.664Z,3.70
2022-09-17T12:40:16.868Z,3.90
2022-09-17T12:43:12.140Z,3.30
2022-09-17T12:45:57.887Z,3.20
2022-09-17T12:49:08.308Z,3.40
2022-09-17T12:51:58.281Z,3.90
2022-09-17T12:54:45.457Z,3.80
2022-09-17T12:57:30.471Z,3.50
2022-09-17T13:00:08.203Z,3.80
2022-09-17T13:02:45.576Z,3.80
2022-09-17T13:05:47.584Z,3.70
2022-09-17T13:08:54.633Z,3.40
2022-09-17T13:11:42.473Z,4.20
2022-09-17T13:14:24.877Z,4.10
2022-09-17T13:17:04.011Z,5.00
2022-09-17T13:19:45.137Z,4.70
2022-09-17T13:22:21.117Z,5.40
2022-09-17T13:25:05.654Z,4.70
2022-09-17T13:27:38.657Z,3.70
2022-09-17T13:30:13.230Z,3.90
2022-09-17T13:32:52.812Z,4.00
2022-09-17T13:35:54.461Z,4.00
2022-09-17T13:38:26.177Z,4.00
2022-09-17T13:41:24.163Z,4.10
2022-09-17T13:43:56.257Z,4.00
2022-09-17T13:46:29.434Z,3.60
2022-09-17T13:49:03.565Z,3.70
2022-09-17T13:51:52.938Z,3.30
2022-09-17T13:54:39.693Z,3.70
2022-09-17T13:57:16.601Z,3.40
2022-09-17T13:59:59.966Z,3.60
2022-09-17T14:02:38.485Z,3.20
2022-09-17T14:05:38.802Z,3.20
2022-09-17T14:08:57.666Z,3.40
2022-09-17T14:11:41.789Z,3.70
2022-09-17T14:14:47.553Z,3.30
2022-09-17T14:17:51.977Z,26.90
2022-09-17T14:20:26.331Z,71.00
2022-09-17T14:23:02.613Z,100.90
2022-09-17T14:25:47.321Z,22.30
2022-09-17T14:28:29.806Z,57.40
2022-09-17T14:31:03.509Z,12.80
2022-09-17T14:33:36.525Z,47.40
2022-09-17T14:36:19.090Z,18.70
2022-09-17T14:38:54.158Z,3.90
2022-09-17T14:41:30.857Z,3.00
2022-09-17T14:44:07.420Z,2.90
2022-09-17T14:46:45.198Z,3.20
2022-09-17T14:49:23.716Z,3.30
2022-09-17T14:51:59.703Z,3.50
2022-09-17T14:54:36.103Z,3.30
2022-09-17T14:57:22.000Z,3.70
2022-09-17T14:59:57.061Z,3.10
2022-09-17T15:02:36.880Z,2.80
2022-09-17T15:05:26.638Z,3.30
2022-09-17T15:08:21.144Z,3.50
2022-09-17T15:10:56.163Z,3.30
2022-09-17T15:13:30.241Z,3.50
2022-09-17T15:16:07.629Z,3.00
2022-09-17T15:18:44.774Z,2.90
2022-09-17T15:21:31.836Z,3.10
2022-09-17T15:24:14.653Z,3.40
2022-09-17T15:26:49.957Z,2.90
2022-09-17T15:29:24.370Z,41.90
2022-09-17T15:31:55.887Z,52.40
2022-09-17T15:34:27.740Z,104.20
2022-09-17T15:37:17.427Z,142.90
2022-09-17T15:39:52.993Z,65.60
2022-09-17T15:42:27.436Z,18.00
2022-09-17T15:45:18.868Z,22.90
2022-09-17T15:47:58.232Z,7.10
2022-09-17T15:50:31.838Z,3.50
2022-09-17T15:53:23.237Z,3.10
2022-09-17T15:56:11.095Z,3.70
2022-09-17T15:58:56.610Z,4.20
2022-09-17T16:01:55.541Z,5.20
2022-09-17T16:04:29.729Z,4.90
2022-09-17T16:07:27.467Z,4.30
2022-09-17T16:09:59.426Z,25.70
2022-09-17T16:12:31.046Z,23.70
2022-09-17T16:15:06.412Z,9.10
2022-09-17T16:17:47.334Z,12.80
2022-09-17T16:20:23.540Z,25.90
2022-09-17T16:22:57.277Z,21.20
2022-09-17T16:25:30.122Z,18.60
2022-09-17T16:28:05.137Z,9.20
2022-09-17T16:30:36.788Z,10.90
2022-09-17T16:33:10.125Z,6.70
2022-09-17T16:35:41.862Z,9.00
2022-09-17T16:38:13.883Z,14.60
2022-09-17T16:40:47.534Z,7.90
2022-09-17T16:43:19.226Z,9.10
2022-09-17T16:46:02.251Z,6.70
2022-09-17T16:48:34.427Z,16.60
2022-09-17T16:51:11.036Z,16.30
2022-09-17T16:53:42.601Z,11.90
2022-09-17T16:56:16.255Z,8.70
2022-09-17T16:58:50.407Z,4.10
2022-09-17T17:01:21.970Z,7.60
2022-09-17T17:03:55.609Z,6.60
2022-09-17T17:06:27.503Z,3.70
2022-09-17T17:09:01.055Z,3.30
2022-09-17T17:11:32.593Z,6.20
2022-09-17T17:14:05.294Z,7.10
2022-09-17T17:16:37.713Z,6.50
2022-09-17T17:19:09.371Z,4.70
2022-09-17T17:24:15.880Z,3.50
2022-09-17T17:26:49.446Z,3.50
2022-09-17T17:29:20.941Z,3.50
2022-09-17T17:34:22.877Z,4.00
2022-09-17T17:36:54.364Z,3.90
2022-09-17T17:41:56.278Z,4.00
2022-09-17T17:44:27.778Z,3.90
2022-09-17T17:46:59.394Z,3.80
2022-09-17T17:49:30.948Z,3.80
2022-09-17T17:54:33.236Z,4.10
2022-09-17T17:57:05.211Z,3.90
2022-09-17T17:59:36.704Z,3.80
2022-09-17T18:04:38.579Z,3.60
2022-09-17T18:07:10.225Z,3.80
2022-09-17T18:09:41.894Z,4.00
2022-09-17T18:12:13.463Z,4.30
2022-09-17T18:17:14.904Z,4.20
2022-09-17T18:22:16.518Z,4.50
2022-09-17T18:27:18.541Z,5.00
2022-09-17T18:30:22.015Z,5.20
2022-09-17T18:32:54.025Z,4.70
2022-09-17T18:35:25.645Z,5.40
2022-09-17T18:37:57.155Z,5.10
2022-09-17T18:42:58.941Z,5.30
2022-09-17T18:48:00.606Z,5.10
2022-09-17T18:53:02.806Z,5.40
2022-09-17T18:55:34.984Z,5.30
2022-09-17T19:00:36.500Z,6.10
2022-09-17T19:05:38.034Z,6.30
2022-09-17T19:08:09.647Z,5.60
2022-09-17T19:10:41.282Z,5.20
2022-09-17T19:15:43.212Z,5.20
2022-09-17T19:18:15.163Z,5.10
2022-09-17T19:20:46.673Z,6.00
2022-09-17T19:25:49.469Z,6.10
2022-09-17T19:30:51.928Z,5.40
2022-09-17T19:33:23.452Z,5.00
2022-09-17T19:38:27.619Z,5.30
2022-09-17T19:41:00.904Z,5.50
2022-09-17T19:43:34.317Z,4.90
2022-09-17T19:46:08.324Z,5.20
2022-09-17T19:48:44.070Z,4.90
2022-09-17T19:51:16.284Z,4.40
2022-09-17T19:53:48.467Z,4.50
2022-09-17T19:56:22.202Z,5.10
2022-09-17T19:58:54.257Z,4.70
2022-09-17T20:01:26.349Z,4.50
2022-09-17T20:03:57.889Z,5.40
2022-09-17T20:09:02.591Z,4.60
2022-09-17T20:11:34.176Z,4.50
2022-09-17T20:16:39.844Z,4.90
2022-09-17T20:19:16.399Z,4.60
2022-09-17T20:21:48.016Z,4.80
2022-09-17T20:26:51.111Z,4.00
2022-09-17T20:29:22.767Z,4.60
2022-09-17T20:34:24.288Z,6.10
2022-09-17T20:37:12.208Z,4.90
2022-09-17T20:39:45.313Z,4.70
2022-09-17T20:42:16.785Z,4.20
2022-09-17T20:47:18.764Z,3.80
2022-09-17T20:49:50.658Z,4.40
2022-09-17T20:54:52.857Z,4.10
2022-09-17T20:59:57.458Z,4.30
2022-09-17T21:02:29.153Z,4.20
2022-09-17T21:05:00.613Z,4.80
2022-09-17T21:07:33.143Z,5.10
2022-09-17T21:10:05.386Z,6.00
2022-09-17T21:12:36.857Z,5.10
2022-09-17T21:15:11.641Z,5.60
2022-09-17T21:17:45.348Z,6.00
2022-09-17T21:20:17.289Z,4.80
2022-09-17T21:22:48.740Z,5.40
2022-09-17T21:27:50.193Z,5.40
2022-09-17T21:32:55.498Z,5.20
2022-09-17T21:35:30.269Z,5.90
2022-09-17T21:38:01.691Z,5.20
2022-09-17T21:40:33.225Z,5.70
2022-09-17T21:45:34.708Z,5.30
2022-09-17T21:48:06.331Z,5.50
2022-09-17T21:50:37.860Z,4.80
2022-09-17T21:55:39.354Z,4.30
2022-09-17T22:00:42.904Z,4.20
2022-09-17T22:03:14.429Z,4.20
2022-09-17T22:08:15.880Z,4.40
2022-09-17T22:10:47.323Z,3.80
2022-09-17T22:15:58.408Z,4.20
2022-09-17T22:18:30.302Z,4.40
2022-09-17T22:21:11.834Z,4.20
2022-09-17T22:23:43.854Z,3.70
2022-09-17T22:26:15.941Z,3.90
2022-09-17T22:28:47.593Z,3.90
2022-09-17T22:31:20.391Z,3.90
2022-09-17T22:33:54.551Z,4.50
2022-09-17T22:38:59.184Z,3.40
2022-09-17T22:41:32.389Z,4.00
2022-09-17T22:44:05.649Z,3.60
2022-09-17T22:46:39.320Z,3.60
2022-09-17T22:49:12.164Z,4.30
2022-09-17T22:51:44.916Z,3.80
2022-09-17T22:54:18.862Z,3.30
2022-09-17T22:56:50.776Z,3.40
2022-09-17T22:59:22.310Z,3.70
2022-09-17T23:04:23.756Z,4.00
2022-09-17T23:06:55.215Z,4.10
2022-09-17T23:11:56.672Z,3.40
2022-09-17T23:14:28.201Z,3.50
2022-09-17T23:19:29.951Z,4.00
2022-09-17T23:22:01.462Z,4.10
2022-09-17T23:27:05.874Z,3.40
2022-09-17T23:29:37.583Z,3.80
2022-09-17T23:34:42.384Z,3.90
2022-09-17T23:37:13.806Z,3.70
2022-09-17T23:39:45.243Z,3.40
2022-09-17T23:42:17.118Z,3.60
2022-09-17T23:44:48.626Z,3.50
2022-09-17T23:47:20.106Z,4.00
2022-09-17T23:52:21.733Z,4.40
2022-09-17T23:54:57.728Z,3.50
2022-09-17T23:57:30.446Z,3.90
